sensor_id;sensor_type;location;lat;lon;timestamp;P1;durP1;ratioP1;P2;durP2;ratioP2
19971;SDS011;10147;16.402;102.848;2023-04-01T00:01:41;33.55;;;24.17;;
19971;SDS011;10147;16.402;102.848;2023-04-01T00:04:10;31.02;;;23.08;;
19971;SDS011;10147;16.402;102.848;2023-04-01T00:06:41;30.20;;;24.30;;
19971;SDS011;10147;16.402;102.848;2023-04-01T00:09:11;29.20;;;22.60;;
19971;SDS011;10147;16.402;102.848;2023-04-01T00:11:41;30.48;;;23.88;;
19971;SDS011;10147;16.402;102.848;2023-04-01T00:14:13;33.47;;;25.05;;
19971;SDS011;10147;16.402;102.848;2023-04-01T00:16:44;30.67;;;23.73;;
19971;SDS011;10147;16.402;102.848;2023-04-01T00:19:15;36.03;;;32.45;;
19971;SDS011;10147;16.402;102.848;2023-04-01T00:21:45;33.03;;;29.50;;
19971;SDS011;10147;16.402;102.848;2023-04-01T00:24:16;29.70;;;25.33;;
19971;SDS011;10147;16.402;102.848;2023-04-01T00:26:48;34.70;;;30.58;;
19971;SDS011;10147;16.402;102.848;2023-04-01T00:29:18;38.50;;;31.40;;
19971;SDS011;10147;16.402;102.848;2023-04-01T00:31:49;33.63;;;25.73;;
19971;SDS011;10147;16.402;102.848;2023-04-01T00:34:20;31.77;;;26.40;;
19971;SDS011;10147;16.402;102.848;2023-04-01T00:36:50;36.60;;;27.63;;
19971;SDS011;10147;16.402;102.848;2023-04-01T00:39:21;32.85;;;25.98;;
19971;SDS011;10147;16.402;102.848;2023-04-01T00:41:52;36.25;;;27.67;;
19971;SDS011;10147;16.402;102.848;2023-04-01T00:44:30;38.85;;;28.48;;
19971;SDS011;10147;16.402;102.848;2023-04-01T00:47:01;34.72;;;28.70;;
19971;SDS011;10147;16.402;102.848;2023-04-01T00:49:36;35.17;;;28.95;;
19971;SDS011;10147;16.402;102.848;2023-04-01T00:52:08;37.72;;;29.60;;
19971;SDS011;10147;16.402;102.848;2023-04-01T00:54:40;38.50;;;31.35;;
19971;SDS011;10147;16.402;102.848;2023-04-01T00:57:15;40.00;;;32.53;;
19971;SDS011;10147;16.402;102.848;2023-04-01T00:59:49;36.28;;;29.50;;
19971;SDS011;10147;16.402;102.848;2023-04-01T01:02:22;35.35;;;31.40;;
19971;SDS011;10147;16.402;102.848;2023-04-01T01:04:52;37.45;;;29.70;;
19971;SDS011;10147;16.402;102.848;2023-04-01T01:15:56;36.67;;;29.98;;
19971;SDS011;10147;16.402;102.848;2023-04-01T01:27:06;35.75;;;31.55;;
19971;SDS011;10147;16.402;102.848;2023-04-01T01:38:16;41.22;;;33.08;;
19971;SDS011;10147;16.402;102.848;2023-04-01T01:41:05;43.53;;;33.63;;
19971;SDS011;10147;16.402;102.848;2023-04-01T01:43:41;43.28;;;35.28;;
19971;SDS011;10147;16.402;102.848;2023-04-01T01:46:16;39.35;;;33.13;;
19971;SDS011;10147;16.402;102.848;2023-04-01T01:48:48;41.50;;;34.47;;
19971;SDS011;10147;16.402;102.848;2023-04-01T01:51:20;41.67;;;33.95;;
19971;SDS011;10147;16.402;102.848;2023-04-01T01:53:51;38.15;;;33.63;;
19971;SDS011;10147;16.402;102.848;2023-04-01T01:56:23;42.20;;;34.45;;
19971;SDS011;10147;16.402;102.848;2023-04-01T01:59:00;51.35;;;34.10;;
19971;SDS011;10147;16.402;102.848;2023-04-01T02:01:32;38.78;;;33.83;;
19971;SDS011;10147;16.402;102.848;2023-04-01T02:04:10;47.42;;;42.42;;
19971;SDS011;10147;16.402;102.848;2023-04-01T02:06:53;49.40;;;41.50;;
19971;SDS011;10147;16.402;102.848;2023-04-01T02:09:26;45.47;;;35.03;;
19971;SDS011;10147;16.402;102.848;2023-04-01T02:12:03;39.42;;;34.88;;
19971;SDS011;10147;16.402;102.848;2023-04-01T02:17:29;39.25;;;33.90;;
19971;SDS011;10147;16.402;102.848;2023-04-01T02:20:01;42.15;;;34.03;;
19971;SDS011;10147;16.402;102.848;2023-04-01T02:22:36;41.30;;;33.92;;
19971;SDS011;10147;16.402;102.848;2023-04-01T02:25:09;52.30;;;42.50;;
19971;SDS011;10147;16.402;102.848;2023-04-01T02:27:41;48.65;;;40.60;;
19971;SDS011;10147;16.402;102.848;2023-04-01T02:30:16;40.55;;;36.15;;
19971;SDS011;10147;16.402;102.848;2023-04-01T02:32:47;39.97;;;34.53;;
19971;SDS011;10147;16.402;102.848;2023-04-01T02:35:19;39.00;;;34.03;;
19971;SDS011;10147;16.402;102.848;2023-04-01T02:37:49;38.83;;;34.38;;
19971;SDS011;10147;16.402;102.848;2023-04-01T02:40:20;43.55;;;38.88;;
19971;SDS011;10147;16.402;102.848;2023-04-01T02:42:50;44.40;;;39.13;;
19971;SDS011;10147;16.402;102.848;2023-04-01T02:45:21;41.22;;;34.80;;
19971;SDS011;10147;16.402;102.848;2023-04-01T02:47:52;39.45;;;34.90;;
19971;SDS011;10147;16.402;102.848;2023-04-01T02:50:22;40.78;;;33.05;;
19971;SDS011;10147;16.402;102.848;2023-04-01T02:52:52;45.85;;;39.30;;
19971;SDS011;10147;16.402;102.848;2023-04-01T02:55:23;46.78;;;41.80;;
19971;SDS011;10147;16.402;102.848;2023-04-01T02:57:53;50.42;;;45.08;;
19971;SDS011;10147;16.402;102.848;2023-04-01T03:00:24;40.50;;;36.45;;
19971;SDS011;10147;16.402;102.848;2023-04-01T03:02:54;36.08;;;32.17;;
19971;SDS011;10147;16.402;102.848;2023-04-01T03:05:25;42.40;;;32.88;;
19971;SDS011;10147;16.402;102.848;2023-04-01T03:07:56;38.20;;;34.05;;
19971;SDS011;10147;16.402;102.848;2023-04-01T03:10:27;42.58;;;32.55;;
19971;SDS011;10147;16.402;102.848;2023-04-01T03:12:57;42.35;;;33.65;;
19971;SDS011;10147;16.402;102.848;2023-04-01T03:15:27;42.13;;;33.60;;
19971;SDS011;10147;16.402;102.848;2023-04-01T03:17:59;45.35;;;34.72;;
19971;SDS011;10147;16.402;102.848;2023-04-01T03:20:30;44.47;;;35.70;;
19971;SDS011;10147;16.402;102.848;2023-04-01T03:23:00;38.40;;;33.50;;
19971;SDS011;10147;16.402;102.848;2023-04-01T03:25:30;37.60;;;33.58;;
19971;SDS011;10147;16.402;102.848;2023-04-01T03:28:01;37.75;;;33.85;;
19971;SDS011;10147;16.402;102.848;2023-04-01T03:30:31;38.38;;;34.35;;
19971;SDS011;10147;16.402;102.848;2023-04-01T03:33:02;37.15;;;31.98;;
19971;SDS011;10147;16.402;102.848;2023-04-01T03:35:33;39.65;;;35.25;;
19971;SDS011;10147;16.402;102.848;2023-04-01T03:38:05;37.40;;;33.35;;
19971;SDS011;10147;16.402;102.848;2023-04-01T03:40:36;38.38;;;33.70;;
19971;SDS011;10147;16.402;102.848;2023-04-01T03:43:07;35.10;;;31.40;;
19971;SDS011;10147;16.402;102.848;2023-04-01T03:45:45;35.50;;;31.50;;
19971;SDS011;10147;16.402;102.848;2023-04-01T03:48:16;35.60;;;30.40;;
19971;SDS011;10147;16.402;102.848;2023-04-01T03:50:48;36.08;;;31.35;;
19971;SDS011;10147;16.402;102.848;2023-04-01T03:53:19;35.92;;;31.52;;
19971;SDS011;10147;16.402;102.848;2023-04-01T03:55:51;37.03;;;30.88;;
19971;SDS011;10147;16.402;102.848;2023-04-01T03:58:21;35.38;;;31.45;;
19971;SDS011;10147;16.402;102.848;2023-04-01T04:00:53;34.65;;;30.95;;
19971;SDS011;10147;16.402;102.848;2023-04-01T04:03:24;33.83;;;30.20;;
19971;SDS011;10147;16.402;102.848;2023-04-01T04:05:55;33.83;;;29.90;;
19971;SDS011;10147;16.402;102.848;2023-04-01T04:08:25;34.97;;;31.20;;
19971;SDS011;10147;16.402;102.848;2023-04-01T04:10:56;33.20;;;29.65;;
19971;SDS011;10147;16.402;102.848;2023-04-01T04:13:27;34.63;;;30.95;;
19971;SDS011;10147;16.402;102.848;2023-04-01T04:16:01;32.45;;;28.73;;
19971;SDS011;10147;16.402;102.848;2023-04-01T04:18:32;31.10;;;28.00;;
19971;SDS011;10147;16.402;102.848;2023-04-01T04:21:03;30.52;;;25.52;;
19971;SDS011;10147;16.402;102.848;2023-04-01T04:23:34;38.42;;;32.15;;
19971;SDS011;10147;16.402;102.848;2023-04-01T04:26:06;29.63;;;25.40;;
19971;SDS011;10147;16.402;102.848;2023-04-01T04:28:38;29.50;;;25.65;;
19971;SDS011;10147;16.402;102.848;2023-04-01T04:31:08;33.75;;;25.67;;
19971;SDS011;10147;16.402;102.848;2023-04-01T04:33:40;27.15;;;24.45;;
19971;SDS011;10147;16.402;102.848;2023-04-01T04:36:11;29.90;;;26.27;;
19971;SDS011;10147;16.402;102.848;2023-04-01T04:38:42;27.05;;;24.30;;
19971;SDS011;10147;16.402;102.848;2023-04-01T04:41:13;31.55;;;25.50;;
19971;SDS011;10147;16.402;102.848;2023-04-01T04:43:51;26.85;;;24.10;;
19971;SDS011;10147;16.402;102.848;2023-04-01T04:46:24;27.35;;;24.40;;
19971;SDS011;10147;16.402;102.848;2023-04-01T04:49:02;27.83;;;24.92;;
19971;SDS011;10147;16.402;102.848;2023-04-01T04:51:32;26.35;;;23.65;;
19971;SDS011;10147;16.402;102.848;2023-04-01T04:54:05;33.22;;;25.40;;
19971;SDS011;10147;16.402;102.848;2023-04-01T04:56:51;28.15;;;25.17;;
19971;SDS011;10147;16.402;102.848;2023-04-01T04:59:23;28.45;;;25.02;;
19971;SDS011;10147;16.402;102.848;2023-04-01T05:02:13;30.48;;;24.83;;
19971;SDS011;10147;16.402;102.848;2023-04-01T05:04:44;27.65;;;24.77;;
19971;SDS011;10147;16.402;102.848;2023-04-01T05:07:15;26.60;;;23.90;;
19971;SDS011;10147;16.402;102.848;2023-04-01T05:09:45;26.70;;;23.95;;
19971;SDS011;10147;16.402;102.848;2023-04-01T05:12:16;27.25;;;24.35;;
19971;SDS011;10147;16.402;102.848;2023-04-01T05:14:59;27.30;;;24.48;;
19971;SDS011;10147;16.402;102.848;2023-04-01T05:17:29;27.25;;;24.52;;
19971;SDS011;10147;16.402;102.848;2023-04-01T05:20:03;26.77;;;24.05;;
19971;SDS011;10147;16.402;102.848;2023-04-01T05:22:34;26.98;;;24.15;;
19971;SDS011;10147;16.402;102.848;2023-04-01T05:25:04;28.80;;;25.80;;
19971;SDS011;10147;16.402;102.848;2023-04-01T05:27:35;26.75;;;24.00;;
19971;SDS011;10147;16.402;102.848;2023-04-01T05:30:06;29.52;;;26.00;;
19971;SDS011;10147;16.402;102.848;2023-04-01T05:32:56;27.65;;;23.70;;
19971;SDS011;10147;16.402;102.848;2023-04-01T05:35:27;28.30;;;25.27;;
19971;SDS011;10147;16.402;102.848;2023-04-01T05:37:58;27.73;;;24.27;;
19971;SDS011;10147;16.402;102.848;2023-04-01T05:40:29;28.33;;;23.45;;
19971;SDS011;10147;16.402;102.848;2023-04-01T05:43:00;27.05;;;24.35;;
19971;SDS011;10147;16.402;102.848;2023-04-01T05:45:30;26.90;;;23.50;;
19971;SDS011;10147;16.402;102.848;2023-04-01T05:48:21;30.38;;;24.38;;
19971;SDS011;10147;16.402;102.848;2023-04-01T05:50:51;29.20;;;23.85;;
19971;SDS011;10147;16.402;102.848;2023-04-01T05:53:21;28.23;;;25.40;;
19971;SDS011;10147;16.402;102.848;2023-04-01T05:55:52;28.10;;;24.35;;
19971;SDS011;10147;16.402;102.848;2023-04-01T05:58:22;26.63;;;23.92;;
19971;SDS011;10147;16.402;102.848;2023-04-01T06:00:59;26.88;;;24.00;;
19971;SDS011;10147;16.402;102.848;2023-04-01T06:03:39;26.33;;;23.48;;
19971;SDS011;10147;16.402;102.848;2023-04-01T06:06:15;28.13;;;24.98;;
19971;SDS011;10147;16.402;102.848;2023-04-01T06:08:45;27.98;;;25.00;;
19971;SDS011;10147;16.402;102.848;2023-04-01T06:11:22;25.88;;;22.88;;
19971;SDS011;10147;16.402;102.848;2023-04-01T06:17:06;26.75;;;23.88;;
19971;SDS011;10147;16.402;102.848;2023-04-01T06:19:44;27.38;;;24.33;;
19971;SDS011;10147;16.402;102.848;2023-04-01T06:25:20;26.83;;;23.90;;
19971;SDS011;10147;16.402;102.848;2023-04-01T06:30:50;25.73;;;23.13;;
19971;SDS011;10147;16.402;102.848;2023-04-01T06:36:43;27.25;;;24.35;;
19971;SDS011;10147;16.402;102.848;2023-04-01T06:44:58;28.42;;;24.83;;
19971;SDS011;10147;16.402;102.848;2023-04-01T06:48:08;28.90;;;25.58;;
19971;SDS011;10147;16.402;102.848;2023-04-01T06:54:11;29.05;;;26.15;;
19971;SDS011;10147;16.402;102.848;2023-04-01T06:57:07;27.17;;;24.48;;
19971;SDS011;10147;16.402;102.848;2023-04-01T06:59:39;41.88;;;27.50;;
19971;SDS011;10147;16.402;102.848;2023-04-01T07:02:24;26.33;;;23.60;;
19971;SDS011;10147;16.402;102.848;2023-04-01T07:04:59;27.02;;;24.23;;
19971;SDS011;10147;16.402;102.848;2023-04-01T07:07:33;26.75;;;24.05;;
19971;SDS011;10147;16.402;102.848;2023-04-01T07:10:17;29.95;;;25.55;;
19971;SDS011;10147;16.402;102.848;2023-04-01T07:13:13;25.88;;;23.33;;
19971;SDS011;10147;16.402;102.848;2023-04-01T07:15:55;26.65;;;23.85;;
19971;SDS011;10147;16.402;102.848;2023-04-01T07:18:31;25.92;;;23.15;;
19971;SDS011;10147;16.402;102.848;2023-04-01T07:21:04;27.02;;;24.17;;
19971;SDS011;10147;16.402;102.848;2023-04-01T07:23:42;25.70;;;23.13;;
19971;SDS011;10147;16.402;102.848;2023-04-01T07:26:34;26.02;;;23.38;;
19971;SDS011;10147;16.402;102.848;2023-04-01T07:29:11;27.52;;;24.70;;
19971;SDS011;10147;16.402;102.848;2023-04-01T07:35:02;27.00;;;23.33;;
19971;SDS011;10147;16.402;102.848;2023-04-01T07:37:37;26.10;;;23.50;;
19971;SDS011;10147;16.402;102.848;2023-04-01T07:49:02;26.23;;;23.40;;
19971;SDS011;10147;16.402;102.848;2023-04-01T07:51:38;25.02;;;22.52;;
19971;SDS011;10147;16.402;102.848;2023-04-01T08:00:11;26.90;;;23.50;;
19971;SDS011;10147;16.402;102.848;2023-04-01T08:03:10;26.85;;;22.98;;
19971;SDS011;10147;16.402;102.848;2023-04-01T08:05:49;26.33;;;23.48;;
19971;SDS011;10147;16.402;102.848;2023-04-01T08:11:35;26.35;;;23.55;;
19971;SDS011;10147;16.402;102.848;2023-04-01T08:14:42;27.80;;;24.63;;
19971;SDS011;10147;16.402;102.848;2023-04-01T08:20:28;25.05;;;22.60;;
19971;SDS011;10147;16.402;102.848;2023-04-01T08:23:11;25.95;;;23.27;;
19971;SDS011;10147;16.402;102.848;2023-04-01T08:25:45;26.55;;;22.00;;
19971;SDS011;10147;16.402;102.848;2023-04-01T08:34:01;24.45;;;21.95;;
19971;SDS011;10147;16.402;102.848;2023-04-01T08:36:36;26.80;;;22.77;;
19971;SDS011;10147;16.402;102.848;2023-04-01T08:39:16;25.48;;;22.92;;
19971;SDS011;10147;16.402;102.848;2023-04-01T08:41:57;26.73;;;23.70;;
19971;SDS011;10147;16.402;102.848;2023-04-01T08:56:21;26.50;;;22.85;;
19971;SDS011;10147;16.402;102.848;2023-04-01T08:58:59;27.20;;;22.85;;
19971;SDS011;10147;16.402;102.848;2023-04-01T09:01:46;24.40;;;21.58;;
19971;SDS011;10147;16.402;102.848;2023-04-01T09:13:56;25.48;;;22.02;;
19971;SDS011;10147;16.402;102.848;2023-04-01T09:19:21;26.10;;;22.90;;
19971;SDS011;10147;16.402;102.848;2023-04-01T09:22:10;25.13;;;22.13;;
19971;SDS011;10147;16.402;102.848;2023-04-01T09:24:46;27.27;;;24.38;;
19971;SDS011;10147;16.402;102.848;2023-04-01T09:27:25;25.90;;;22.88;;
19971;SDS011;10147;16.402;102.848;2023-04-01T09:30:06;26.70;;;23.85;;
19971;SDS011;10147;16.402;102.848;2023-04-01T09:38:37;26.38;;;23.05;;
19971;SDS011;10147;16.402;102.848;2023-04-01T09:41:26;28.58;;;22.73;;
19971;SDS011;10147;16.402;102.848;2023-04-01T09:44:19;29.25;;;23.88;;
19971;SDS011;10147;16.402;102.848;2023-04-01T09:47:16;26.80;;;24.00;;
19971;SDS011;10147;16.402;102.848;2023-04-01T09:49:56;27.23;;;23.42;;
19971;SDS011;10147;16.402;102.848;2023-04-01T10:04:34;37.45;;;25.90;;
19971;SDS011;10147;16.402;102.848;2023-04-01T10:15:53;29.13;;;25.15;;
19971;SDS011;10147;16.402;102.848;2023-04-01T10:18:31;28.90;;;25.83;;
19971;SDS011;10147;16.402;102.848;2023-04-01T10:21:14;29.85;;;26.67;;
19971;SDS011;10147;16.402;102.848;2023-04-01T10:24:10;29.02;;;25.73;;
19971;SDS011;10147;16.402;102.848;2023-04-01T10:26:49;30.58;;;27.42;;
19971;SDS011;10147;16.402;102.848;2023-04-01T10:38:20;28.33;;;25.25;;
19971;SDS011;10147;16.402;102.848;2023-04-01T10:44:24;29.63;;;26.35;;
19971;SDS011;10147;16.402;102.848;2023-04-01T11:02:12;37.38;;;32.95;;
19971;SDS011;10147;16.402;102.848;2023-04-01T11:14:18;39.03;;;34.65;;
19971;SDS011;10147;16.402;102.848;2023-04-01T11:19:46;37.70;;;29.08;;
19971;SDS011;10147;16.402;102.848;2023-04-01T11:25:36;40.78;;;29.13;;
19971;SDS011;10147;16.402;102.848;2023-04-01T11:40:11;40.15;;;30.55;;
19971;SDS011;10147;16.402;102.848;2023-04-01T11:46:23;49.45;;;31.35;;
19971;SDS011;10147;16.402;102.848;2023-04-01T12:03:25;44.88;;;32.00;;
19971;SDS011;10147;16.402;102.848;2023-04-01T12:09:01;46.50;;;36.38;;
19971;SDS011;10147;16.402;102.848;2023-04-01T12:22:58;51.47;;;37.33;;
19971;SDS011;10147;16.402;102.848;2023-04-01T12:25:45;49.67;;;33.97;;
19971;SDS011;10147;16.402;102.848;2023-04-01T12:28:25;45.38;;;35.38;;
19971;SDS011;10147;16.402;102.848;2023-04-01T12:39:35;51.50;;;37.20;;
19971;SDS011;10147;16.402;102.848;2023-04-01T12:42:14;45.35;;;37.13;;
19971;SDS011;10147;16.402;102.848;2023-04-01T12:56:19;60.08;;;45.95;;
19971;SDS011;10147;16.402;102.848;2023-04-01T12:58:58;59.33;;;45.03;;
19971;SDS011;10147;16.402;102.848;2023-04-01T13:01:40;62.45;;;44.97;;
19971;SDS011;10147;16.402;102.848;2023-04-01T13:04:31;52.97;;;43.05;;
19971;SDS011;10147;16.402;102.848;2023-04-01T13:07:16;48.33;;;42.38;;
19971;SDS011;10147;16.402;102.848;2023-04-01T13:13:00;51.88;;;39.25;;
19971;SDS011;10147;16.402;102.848;2023-04-01T13:15:33;44.13;;;37.90;;
19971;SDS011;10147;16.402;102.848;2023-04-01T13:18:21;46.80;;;37.30;;
19971;SDS011;10147;16.402;102.848;2023-04-01T13:23:51;42.33;;;34.97;;
19971;SDS011;10147;16.402;102.848;2023-04-01T13:26:29;39.60;;;35.22;;
19971;SDS011;10147;16.402;102.848;2023-04-01T13:37:44;40.38;;;32.97;;
19971;SDS011;10147;16.402;102.848;2023-04-01T13:43:39;36.45;;;32.20;;
19971;SDS011;10147;16.402;102.848;2023-04-01T13:46:23;33.80;;;30.00;;
19971;SDS011;10147;16.402;102.848;2023-04-01T13:49:11;39.97;;;30.40;;
19971;SDS011;10147;16.402;102.848;2023-04-01T13:51:56;37.03;;;28.73;;
19971;SDS011;10147;16.402;102.848;2023-04-01T13:57:34;33.45;;;27.40;;
19971;SDS011;10147;16.402;102.848;2023-04-01T14:00:24;32.22;;;26.67;;
19971;SDS011;10147;16.402;102.848;2023-04-01T14:05:52;35.63;;;27.85;;
19971;SDS011;10147;16.402;102.848;2023-04-01T14:11:16;32.17;;;26.88;;
19971;SDS011;10147;16.402;102.848;2023-04-01T14:19:39;29.88;;;25.08;;
19971;SDS011;10147;16.402;102.848;2023-04-01T14:27:55;31.45;;;25.25;;
19971;SDS011;10147;16.402;102.848;2023-04-01T14:36:22;28.45;;;24.25;;
19971;SDS011;10147;16.402;102.848;2023-04-01T14:47:44;32.35;;;23.63;;
19971;SDS011;10147;16.402;102.848;2023-04-01T14:50:23;29.75;;;24.15;;
19971;SDS011;10147;16.402;102.848;2023-04-01T14:55:49;29.20;;;23.05;;
19971;SDS011;10147;16.402;102.848;2023-04-01T14:58:20;27.90;;;23.25;;
19971;SDS011;10147;16.402;102.848;2023-04-01T15:01:07;28.38;;;23.33;;
19971;SDS011;10147;16.402;102.848;2023-04-01T15:09:30;25.58;;;22.20;;
19971;SDS011;10147;16.402;102.848;2023-04-01T15:12:17;29.73;;;24.25;;
19971;SDS011;10147;16.402;102.848;2023-04-01T15:26:17;29.48;;;25.70;;
19971;SDS011;10147;16.402;102.848;2023-04-01T15:29:01;37.13;;;33.47;;
19971;SDS011;10147;16.402;102.848;2023-04-01T15:31:42;35.88;;;32.45;;
19971;SDS011;10147;16.402;102.848;2023-04-01T15:34:23;29.58;;;23.55;;
19971;SDS011;10147;16.402;102.848;2023-04-01T15:36:57;27.23;;;21.85;;
19971;SDS011;10147;16.402;102.848;2023-04-01T15:53:56;27.73;;;22.70;;
19971;SDS011;10147;16.402;102.848;2023-04-01T15:56:36;33.47;;;24.10;;
19971;SDS011;10147;16.402;102.848;2023-04-01T16:02:07;29.30;;;23.92;;
19971;SDS011;10147;16.402;102.848;2023-04-01T16:04:46;28.13;;;23.42;;
19971;SDS011;10147;16.402;102.848;2023-04-01T16:07:30;29.10;;;24.38;;
19971;SDS011;10147;16.402;102.848;2023-04-01T16:10:09;27.27;;;24.45;;
19971;SDS011;10147;16.402;102.848;2023-04-01T16:18:45;28.80;;;25.23;;
19971;SDS011;10147;16.402;102.848;2023-04-01T16:21:19;28.55;;;25.40;;
19971;SDS011;10147;16.402;102.848;2023-04-01T16:23:59;37.85;;;33.63;;
19971;SDS011;10147;16.402;102.848;2023-04-01T16:26:36;25.02;;;22.35;;
19971;SDS011;10147;16.402;102.848;2023-04-01T16:40:40;26.10;;;23.40;;
19971;SDS011;10147;16.402;102.848;2023-04-01T16:51:52;24.17;;;20.48;;
19971;SDS011;10147;16.402;102.848;2023-04-01T16:57:19;24.85;;;20.77;;
19971;SDS011;10147;16.402;102.848;2023-04-01T17:00:02;22.98;;;20.63;;
19971;SDS011;10147;16.402;102.848;2023-04-01T17:02:35;24.65;;;20.73;;
19971;SDS011;10147;16.402;102.848;2023-04-01T17:05:13;24.33;;;21.70;;
19971;SDS011;10147;16.402;102.848;2023-04-01T17:13:29;23.65;;;21.10;;
19971;SDS011;10147;16.402;102.848;2023-04-01T17:16:11;25.63;;;21.58;;
19971;SDS011;10147;16.402;102.848;2023-04-01T17:21:45;28.88;;;21.83;;
19971;SDS011;10147;16.402;102.848;2023-04-01T17:33:06;27.48;;;24.48;;
19971;SDS011;10147;16.402;102.848;2023-04-01T17:35:49;29.83;;;24.35;;
19971;SDS011;10147;16.402;102.848;2023-04-01T17:52:44;30.55;;;25.42;;
19971;SDS011;10147;16.402;102.848;2023-04-01T17:58:11;32.28;;;25.92;;
19971;SDS011;10147;16.402;102.848;2023-04-01T18:01:05;31.92;;;26.42;;
19971;SDS011;10147;16.402;102.848;2023-04-01T18:06:36;33.15;;;26.60;;
19971;SDS011;10147;16.402;102.848;2023-04-01T18:26:18;29.38;;;26.27;;
19971;SDS011;10147;16.402;102.848;2023-04-01T18:28:52;31.17;;;26.65;;
19971;SDS011;10147;16.402;102.848;2023-04-01T18:31:26;31.13;;;26.48;;
19971;SDS011;10147;16.402;102.848;2023-04-01T18:34:06;34.83;;;27.77;;
19971;SDS011;10147;16.402;102.848;2023-04-01T18:39:34;30.77;;;26.92;;
19971;SDS011;10147;16.402;102.848;2023-04-01T18:44:57;33.45;;;26.98;;
19971;SDS011;10147;16.402;102.848;2023-04-01T18:50:22;29.50;;;25.75;;
19971;SDS011;10147;16.402;102.848;2023-04-01T18:55:50;30.05;;;26.38;;
19971;SDS011;10147;16.402;102.848;2023-04-01T18:58:32;29.45;;;26.35;;
19971;SDS011;10147;16.402;102.848;2023-04-01T19:04:03;31.15;;;27.48;;
19971;SDS011;10147;16.402;102.848;2023-04-01T19:06:42;32.75;;;28.23;;
19971;SDS011;10147;16.402;102.848;2023-04-01T19:09:20;33.38;;;28.02;;
19971;SDS011;10147;16.402;102.848;2023-04-01T19:11:55;30.20;;;26.83;;
19971;SDS011;10147;16.402;102.848;2023-04-01T19:14:37;35.00;;;28.75;;
19971;SDS011;10147;16.402;102.848;2023-04-01T19:17:23;33.83;;;26.83;;
19971;SDS011;10147;16.402;102.848;2023-04-01T19:20:07;32.92;;;28.15;;
19971;SDS011;10147;16.402;102.848;2023-04-01T19:23:07;33.53;;;28.15;;
19971;SDS011;10147;16.402;102.848;2023-04-01T19:28:27;35.05;;;29.17;;
19971;SDS011;10147;16.402;102.848;2023-04-01T19:31:20;31.70;;;27.55;;
19971;SDS011;10147;16.402;102.848;2023-04-01T19:34:01;34.60;;;27.52;;
19971;SDS011;10147;16.402;102.848;2023-04-01T19:36:45;32.65;;;27.17;;
19971;SDS011;10147;16.402;102.848;2023-04-01T19:42:17;31.02;;;27.73;;
19971;SDS011;10147;16.402;102.848;2023-04-01T19:45:17;32.55;;;27.50;;
19971;SDS011;10147;16.402;102.848;2023-04-01T19:47:45;32.03;;;27.23;;
19971;SDS011;10147;16.402;102.848;2023-04-01T19:50:34;35.30;;;26.27;;
19971;SDS011;10147;16.402;102.848;2023-04-01T19:53:18;30.70;;;26.85;;
19971;SDS011;10147;16.402;102.848;2023-04-01T19:56:07;33.80;;;27.63;;
19971;SDS011;10147;16.402;102.848;2023-04-01T19:58:53;30.45;;;26.25;;
19971;SDS011;10147;16.402;102.848;2023-04-01T20:01:35;35.65;;;29.30;;
19971;SDS011;10147;16.402;102.848;2023-04-01T20:04:13;29.98;;;26.77;;
19971;SDS011;10147;16.402;102.848;2023-04-01T20:09:51;32.58;;;28.55;;
19971;SDS011;10147;16.402;102.848;2023-04-01T20:20:55;33.67;;;29.45;;
19971;SDS011;10147;16.402;102.848;2023-04-01T20:23:45;34.47;;;28.73;;
19971;SDS011;10147;16.402;102.848;2023-04-01T20:26:21;36.58;;;29.58;;
19971;SDS011;10147;16.402;102.848;2023-04-01T20:29:04;36.22;;;29.80;;
19971;SDS011;10147;16.402;102.848;2023-04-01T20:31:39;32.63;;;27.10;;
19971;SDS011;10147;16.402;102.848;2023-04-01T20:34:19;35.80;;;28.65;;
19971;SDS011;10147;16.402;102.848;2023-04-01T20:39:52;32.63;;;28.98;;
19971;SDS011;10147;16.402;102.848;2023-04-01T20:45:32;36.70;;;29.90;;
19971;SDS011;10147;16.402;102.848;2023-04-01T20:50:57;35.75;;;30.20;;
19971;SDS011;10147;16.402;102.848;2023-04-01T20:53:35;34.10;;;28.73;;
19971;SDS011;10147;16.402;102.848;2023-04-01T20:56:11;35.40;;;29.83;;
19971;SDS011;10147;16.402;102.848;2023-04-01T21:10:07;33.33;;;29.33;;
19971;SDS011;10147;16.402;102.848;2023-04-01T21:18:38;34.60;;;28.88;;
19971;SDS011;10147;16.402;102.848;2023-04-01T21:32:37;35.08;;;29.25;;
19971;SDS011;10147;16.402;102.848;2023-04-01T21:35:21;35.22;;;30.75;;
19971;SDS011;10147;16.402;102.848;2023-04-01T21:41:06;34.22;;;29.08;;
19971;SDS011;10147;16.402;102.848;2023-04-01T21:49:21;37.67;;;30.35;;
19971;SDS011;10147;16.402;102.848;2023-04-01T22:00:32;32.28;;;28.50;;
19971;SDS011;10147;16.402;102.848;2023-04-01T22:08:59;41.40;;;31.00;;
19971;SDS011;10147;16.402;102.848;2023-04-01T22:14:42;35.90;;;29.50;;
19971;SDS011;10147;16.402;102.848;2023-04-01T22:22:59;38.70;;;31.35;;
19971;SDS011;10147;16.402;102.848;2023-04-01T22:25:40;35.45;;;31.38;;
19971;SDS011;10147;16.402;102.848;2023-04-01T22:31:03;35.60;;;30.17;;
19971;SDS011;10147;16.402;102.848;2023-04-01T22:33:38;39.50;;;32.70;;
19971;SDS011;10147;16.402;102.848;2023-04-01T22:36:23;43.80;;;33.13;;
19971;SDS011;10147;16.402;102.848;2023-04-01T22:39:01;51.28;;;46.53;;
19971;SDS011;10147;16.402;102.848;2023-04-01T22:41:40;52.08;;;47.08;;
19971;SDS011;10147;16.402;102.848;2023-04-01T22:44:19;53.22;;;48.00;;
19971;SDS011;10147;16.402;102.848;2023-04-01T22:47:12;51.28;;;44.63;;
19971;SDS011;10147;16.402;102.848;2023-04-01T22:49:48;42.08;;;31.40;;
19971;SDS011;10147;16.402;102.848;2023-04-01T22:52:42;39.75;;;31.95;;
19971;SDS011;10147;16.402;102.848;2023-04-01T22:55:22;38.95;;;32.33;;
19971;SDS011;10147;16.402;102.848;2023-04-01T22:58:02;38.63;;;32.65;;
19971;SDS011;10147;16.402;102.848;2023-04-01T23:00:49;37.97;;;33.85;;
19971;SDS011;10147;16.402;102.848;2023-04-01T23:03:27;37.30;;;33.15;;
19971;SDS011;10147;16.402;102.848;2023-04-01T23:05:59;46.22;;;34.65;;
19971;SDS011;10147;16.402;102.848;2023-04-01T23:11:28;39.67;;;33.00;;
19971;SDS011;10147;16.402;102.848;2023-04-01T23:14:23;40.58;;;33.35;;
19971;SDS011;10147;16.402;102.848;2023-04-01T23:22:35;44.72;;;33.25;;
19971;SDS011;10147;16.402;102.848;2023-04-01T23:30:49;42.63;;;32.35;;
19971;SDS011;10147;16.402;102.848;2023-04-01T23:33:26;42.25;;;33.72;;
19971;SDS011;10147;16.402;102.848;2023-04-01T23:38:47;43.05;;;33.47;;
19971;SDS011;10147;16.402;102.848;2023-04-01T23:41:23;41.70;;;34.30;;
19971;SDS011;10147;16.402;102.848;2023-04-01T23:44:05;43.97;;;33.47;;